createdAt,value
2018-11-23T00:00:40.422Z,92512.66
2018-11-23T00:03:17.072Z,92516.02
2018-11-23T00:05:53.479Z,92522.45
2018-11-23T00:08:29.983Z,92522.25
2018-11-23T00:11:06.679Z,92533.66
2018-11-23T00:13:42.887Z,92535.27
2018-11-23T00:16:22.227Z,92536.43
2018-11-23T00:18:58.673Z,92528.23
2018-11-23T00:21:35.517Z,92528.82
2018-11-23T00:24:11.955Z,92534.45
2018-11-23T00:26:48.390Z,92538.50
2018-11-23T00:29:25.519Z,92537.98
2018-11-23T00:32:02.230Z,92539.42
2018-11-23T00:34:38.722Z,92543.94
2018-11-23T00:37:15.806Z,92546.80
2018-11-23T00:39:51.894Z,92545.09
2018-11-23T00:42:28.482Z,92547.95
2018-11-23T00:45:06.952Z,92557.59
2018-11-23T00:47:44.185Z,92561.19
2018-11-23T00:50:22.998Z,92557.18
2018-11-23T00:53:00.975Z,92566.77
2018-11-23T00:55:37.863Z,92560.00
2018-11-23T00:58:15.477Z,92566.97
2018-11-23T01:00:51.891Z,92560.41
2018-11-23T01:03:29.128Z,92556.92
2018-11-23T01:06:05.583Z,92559.23
2018-11-23T01:08:42.184Z,92563.13
2018-11-23T01:11:21.859Z,92568.96
2018-11-23T01:13:58.748Z,92566.07
2018-11-23T01:16:38.540Z,92565.55
2018-11-23T01:19:15.721Z,92559.10
2018-11-23T01:21:52.616Z,92548.63
2018-11-23T01:24:28.942Z,92556.84
2018-11-23T01:27:05.237Z,92549.23
2018-11-23T01:29:41.428Z,92549.12
2018-11-23T01:32:18.731Z,92550.75
2018-11-23T01:34:55.826Z,92546.56
2018-11-23T01:37:32.099Z,92550.51
2018-11-23T01:40:10.704Z,92549.73
2018-11-23T01:42:47.513Z,92552.63
2018-11-23T01:45:23.613Z,92549.53
2018-11-23T01:48:00.363Z,92551.20
2018-11-23T01:50:37.017Z,92552.73
2018-11-23T01:53:13.303Z,92547.80
2018-11-23T01:55:49.769Z,92553.34
2018-11-23T01:58:29.482Z,92553.66
2018-11-23T02:01:06.468Z,92554.30
2018-11-23T02:03:42.901Z,92556.38
2018-11-23T02:06:19.247Z,92566.42
2018-11-23T02:08:55.469Z,92559.86
2018-11-23T02:11:31.881Z,92563.79
2018-11-23T02:15:32.665Z,92567.69
2018-11-23T02:18:09.663Z,92560.71
2018-11-23T02:20:46.036Z,92561.43
2018-11-23T02:23:22.502Z,92558.66
2018-11-23T02:25:59.034Z,92562.55
2018-11-23T02:28:35.527Z,92566.83
2018-11-23T02:31:11.781Z,92567.34
2018-11-23T02:33:47.802Z,92569.37
2018-11-23T02:36:24.139Z,92572.18
2018-11-23T02:39:00.740Z,92575.88
2018-11-23T02:41:38.286Z,92571.25
2018-11-23T02:44:15.803Z,92574.33
2018-11-23T02:46:56.507Z,92576.58
2018-11-23T02:49:33.195Z,92574.92
2018-11-23T02:52:09.452Z,92584.13
2018-11-23T02:54:45.930Z,92579.92
2018-11-23T02:57:22.304Z,92582.70
2018-11-23T02:59:58.964Z,92582.52
2018-11-23T03:02:35.902Z,92586.80
2018-11-23T03:05:14.581Z,92590.63
2018-11-23T03:07:51.718Z,92586.97
2018-11-23T03:10:28.124Z,92587.07
2018-11-23T03:13:06.662Z,92586.36
2018-11-23T03:15:43.534Z,92590.86
2018-11-23T03:18:19.999Z,92591.19
2018-11-23T03:20:56.356Z,92598.98
2018-11-23T03:23:34.417Z,92593.94
2018-11-23T03:26:12.277Z,92601.00
2018-11-23T03:28:48.634Z,92603.97
2018-11-23T03:31:26.231Z,92604.16
2018-11-23T03:34:02.486Z,92606.06
2018-11-23T03:36:38.856Z,92603.19
2018-11-23T03:39:16.099Z,92607.79
2018-11-23T03:41:53.459Z,92609.66
2018-11-23T03:44:29.750Z,92610.38
2018-11-23T03:47:07.058Z,92611.25
2018-11-23T03:49:43.182Z,92608.00
2018-11-23T03:52:19.751Z,92608.48
2018-11-23T03:54:55.863Z,92611.81
2018-11-23T03:57:32.250Z,92610.39
2018-11-23T04:00:17.370Z,92606.73
2018-11-23T04:02:53.338Z,92612.27
2018-11-23T04:05:29.706Z,92612.95
2018-11-23T04:08:06.027Z,92613.89
2018-11-23T04:10:42.349Z,92619.60
2018-11-23T04:13:18.817Z,92613.88
2018-11-23T04:15:55.038Z,92619.49
2018-11-23T04:18:31.446Z,92623.37
2018-11-23T04:21:07.805Z,92622.37
2018-11-23T04:23:45.374Z,92628.07
2018-11-23T04:26:24.826Z,92627.56
2018-11-23T04:28:58.443Z,92627.70
2018-11-23T04:31:34.752Z,92632.70
2018-11-23T04:34:12.396Z,92632.22
2018-11-23T04:36:48.786Z,92635.47
2018-11-23T04:39:25.187Z,92633.93
2018-11-23T04:42:01.484Z,92633.95
2018-11-23T04:44:37.778Z,92627.35
2018-11-23T04:47:14.239Z,92631.23
2018-11-23T04:49:50.641Z,92636.27
2018-11-23T04:52:27.602Z,92636.56
2018-11-23T04:55:04.000Z,92639.44
2018-11-23T04:57:40.467Z,92648.30
2018-11-23T05:00:18.184Z,92641.67
2018-11-23T05:02:54.581Z,92648.97
2018-11-23T05:05:31.040Z,92653.64
2018-11-23T05:08:07.278Z,92655.12
2018-11-23T05:10:43.448Z,92651.67
2018-11-23T05:13:19.749Z,92649.55
2018-11-23T05:15:56.254Z,92657.28
2018-11-23T05:18:32.772Z,92655.13
2018-11-23T05:21:09.226Z,92661.77
2018-11-23T05:23:45.549Z,92665.36
2018-11-23T05:26:21.974Z,92673.73
2018-11-23T05:28:58.239Z,92663.97
2018-11-23T05:31:34.399Z,92666.00
2018-11-23T05:34:10.670Z,92672.06
2018-11-23T05:36:47.357Z,92672.48
2018-11-23T05:39:23.695Z,92679.62
2018-11-23T05:41:59.948Z,92676.25
2018-11-23T05:44:36.195Z,92678.15
2018-11-23T05:47:13.159Z,92684.61
2018-11-23T05:49:49.641Z,92691.06
2018-11-23T05:52:25.959Z,92688.84
2018-11-23T05:55:02.732Z,92689.67
2018-11-23T05:57:39.385Z,92691.44
2018-11-23T06:00:19.772Z,92697.75
2018-11-23T06:02:56.059Z,92699.72
2018-11-23T06:05:32.339Z,92702.73
2018-11-23T06:08:08.828Z,92713.02
2018-11-23T06:10:44.959Z,92711.58
2018-11-23T06:13:21.468Z,92712.27
2018-11-23T06:15:58.766Z,92712.88
2018-11-23T06:18:35.259Z,92715.96
2018-11-23T06:21:11.782Z,92719.11
2018-11-23T06:23:50.382Z,92715.05
2018-11-23T06:26:27.874Z,92713.16
2018-11-23T06:29:05.628Z,92724.95
2018-11-23T06:31:47.905Z,92723.88
2018-11-23T06:34:24.358Z,92729.97
2018-11-23T06:37:00.423Z,92733.53
2018-11-23T06:39:36.870Z,92734.72
2018-11-23T06:42:13.194Z,92736.55
2018-11-23T06:44:49.594Z,92743.23
2018-11-23T06:47:25.806Z,92743.17
2018-11-23T06:50:02.594Z,92749.26
2018-11-23T06:52:45.857Z,92760.01
2018-11-23T06:55:24.900Z,92762.06
2018-11-23T06:58:01.206Z,92757.44
2018-11-23T07:00:37.761Z,92770.39
2018-11-23T07:03:13.944Z,92760.19
2018-11-23T07:05:50.378Z,92762.67
2018-11-23T07:08:26.690Z,92760.09
2018-11-23T07:11:04.298Z,92750.72
2018-11-23T07:13:40.595Z,92761.73
2018-11-23T07:16:16.763Z,92766.47
2018-11-23T07:18:53.090Z,92768.69
2018-11-23T07:21:29.450Z,92769.52
2018-11-23T07:24:06.236Z,92769.31
2018-11-23T07:26:42.605Z,92775.16
2018-11-23T07:29:20.390Z,92779.88
2018-11-23T07:31:56.794Z,92779.36
2018-11-23T07:34:33.458Z,92780.39
2018-11-23T07:37:09.906Z,92776.59
2018-11-23T07:39:57.343Z,92786.64
2018-11-23T07:42:34.315Z,92787.45
2018-11-23T07:45:10.871Z,92782.90
2018-11-23T07:47:47.278Z,92789.89
2018-11-23T07:50:23.578Z,92791.84
2018-11-23T07:52:59.676Z,92790.09
2018-11-23T07:55:36.169Z,92793.08
2018-11-23T07:58:12.739Z,92799.91
2018-11-23T08:00:49.086Z,92803.01
2018-11-23T08:03:25.538Z,92804.96
2018-11-23T08:06:02.131Z,92807.52
2018-11-23T08:08:38.502Z,92813.16
2018-11-23T08:11:14.810Z,92805.94
2018-11-23T08:13:51.289Z,92813.09
2018-11-23T08:16:27.691Z,92811.69
2018-11-23T08:19:04.430Z,92811.95
2018-11-23T08:21:40.931Z,92818.95
2018-11-23T08:24:17.367Z,92817.62
2018-11-23T08:26:53.705Z,92818.20
2018-11-23T08:29:30.265Z,92825.88
2018-11-23T08:32:06.747Z,92824.38
2018-11-23T08:34:43.081Z,92819.24
2018-11-23T08:37:19.428Z,92824.34
2018-11-23T08:39:55.904Z,92819.22
2018-11-23T08:42:32.091Z,92816.33
2018-11-23T08:45:11.482Z,92812.55
2018-11-23T08:47:47.630Z,92819.83
2018-11-23T08:50:26.683Z,92816.36
2018-11-23T08:53:02.801Z,92820.55
2018-11-23T08:55:39.088Z,92825.42
2018-11-23T08:58:15.632Z,92823.91
2018-11-23T09:00:52.104Z,92829.80
2018-11-23T09:03:28.451Z,92825.88
2018-11-23T09:06:04.813Z,92818.27
2018-11-23T09:08:41.066Z,92813.80
2018-11-23T09:11:17.455Z,92802.95
2018-11-23T09:13:53.754Z,92805.85
2018-11-23T09:16:30.185Z,92800.57
2018-11-23T09:19:06.832Z,92795.25
2018-11-23T09:21:42.932Z,92790.69
2018-11-23T09:24:19.391Z,92778.08
2018-11-23T09:26:55.660Z,92788.81
2018-11-23T09:29:32.496Z,92778.30
2018-11-23T09:32:08.749Z,92777.91
2018-11-23T09:34:45.080Z,92779.88
2018-11-23T09:37:21.523Z,92777.88
2018-11-23T09:39:57.828Z,92777.21
2018-11-23T09:42:34.139Z,92774.69
2018-11-23T09:45:14.183Z,92781.47
2018-11-23T09:47:51.647Z,92772.69
2018-11-23T09:50:28.328Z,92768.75
2018-11-23T09:53:05.358Z,92764.84
2018-11-23T09:55:41.604Z,92766.54
2018-11-23T09:58:17.929Z,92763.42
2018-11-23T10:00:54.974Z,92766.59
2018-11-23T10:03:31.359Z,92764.27
2018-11-23T10:06:07.924Z,92763.17
2018-11-23T10:08:44.321Z,92769.19
2018-11-23T10:11:20.671Z,92761.22
2018-11-23T10:13:51.860Z,92760.59
2018-11-23T10:16:23.253Z,92755.22
2018-11-23T10:18:54.573Z,92755.28
2018-11-23T10:21:26.614Z,92753.41
2018-11-23T10:23:57.983Z,92754.92
2018-11-23T10:26:29.402Z,92748.75
2018-11-23T10:36:13.950Z,92746.69
2018-11-23T10:38:45.323Z,92747.31
2018-11-23T10:41:16.626Z,92742.83
2018-11-23T10:43:47.876Z,92741.55
2018-11-23T10:46:20.479Z,92740.86
2018-11-23T10:48:51.751Z,92739.13
2018-11-23T10:51:23.044Z,92733.92
2018-11-23T10:53:55.383Z,92735.63
2018-11-23T10:56:26.796Z,92738.66
2018-11-23T10:58:58.309Z,92746.09
2018-11-23T11:01:34.701Z,92741.74
2018-11-23T11:04:11.372Z,92744.25
2018-11-23T11:06:47.757Z,92745.66
2018-11-23T11:09:19.044Z,92746.17
2018-11-23T11:11:50.668Z,92745.11
2018-11-23T11:14:21.902Z,92744.36
2018-11-23T11:16:53.194Z,92757.25
2018-11-23T11:19:24.520Z,92752.00
2018-11-23T11:21:55.896Z,92756.66
2018-11-23T11:24:27.121Z,92749.34
2018-11-23T11:26:58.437Z,92740.48
2018-11-23T11:29:29.993Z,92737.70
2018-11-23T11:32:01.272Z,92739.88
2018-11-23T11:34:32.571Z,92741.79
2018-11-23T11:37:04.621Z,92737.13
2018-11-23T11:39:35.922Z,92736.61
2018-11-23T11:42:07.179Z,92732.95
2018-11-23T11:44:38.369Z,92729.80
2018-11-23T11:47:10.287Z,92729.55
2018-11-23T11:49:41.595Z,92729.02
2018-11-23T11:52:12.895Z,92723.42
2018-11-23T11:54:44.156Z,92734.20
2018-11-23T11:57:15.616Z,92729.70
2018-11-23T11:59:47.845Z,92729.20
2018-11-23T12:02:19.095Z,92728.02
2018-11-23T12:04:50.339Z,92722.26
2018-11-23T12:07:21.970Z,92724.31
2018-11-23T12:09:53.266Z,92729.00
2018-11-23T12:12:24.601Z,92717.49
2018-11-23T12:14:55.789Z,92712.23
2018-11-23T12:17:27.062Z,92727.88
2018-11-23T12:19:58.352Z,92724.05
2018-11-23T12:22:30.568Z,92716.45
2018-11-23T12:25:01.809Z,92716.37
2018-11-23T12:27:33.067Z,92722.63
2018-11-23T12:30:04.748Z,92719.77
2018-11-23T12:32:36.054Z,92725.48
2018-11-23T12:35:09.165Z,92723.63
2018-11-23T12:37:41.277Z,92728.88
2018-11-23T12:40:14.082Z,92737.48
2018-11-23T12:42:46.127Z,92730.05
2018-11-23T12:45:18.801Z,92737.66
2018-11-23T12:47:50.067Z,92735.24
2018-11-23T12:50:22.745Z,92737.92
2018-11-23T12:52:54.372Z,92735.78
2018-11-23T12:55:25.658Z,92737.39
2018-11-23T12:57:57.058Z,92736.67
2018-11-23T13:00:29.209Z,92733.80
2018-11-23T13:03:02.853Z,92735.50
2018-11-23T13:05:35.400Z,92731.94
2018-11-23T13:08:07.654Z,92739.45
2018-11-23T13:10:39.000Z,92738.64
2018-11-23T13:13:10.430Z,92744.72
2018-11-23T13:15:42.419Z,92741.41
2018-11-23T13:18:14.261Z,92738.37
2018-11-23T13:20:45.754Z,92743.55
2018-11-23T13:23:18.819Z,92745.08
2018-11-23T13:25:50.345Z,92745.35
2018-11-23T13:28:25.236Z,92749.65
2018-11-23T13:30:56.661Z,92743.30
2018-11-23T13:33:28.074Z,92737.30
2018-11-23T13:35:59.474Z,92744.11
2018-11-23T13:38:31.045Z,92740.70
2018-11-23T13:41:02.408Z,92740.33
2018-11-23T13:43:33.706Z,92739.08
2018-11-23T13:46:05.080Z,92750.88
2018-11-23T13:48:36.323Z,92745.53
2018-11-23T13:51:07.565Z,92752.16
2018-11-23T13:53:38.851Z,92758.67
2018-11-23T13:56:10.774Z,92754.81
2018-11-23T13:58:42.198Z,92752.94
2018-11-23T14:01:13.522Z,92745.15
2018-11-23T14:03:47.171Z,92740.61
2018-11-23T14:06:18.494Z,92745.79
2018-11-23T14:08:49.788Z,92746.03
2018-11-23T14:11:21.178Z,92746.91
2018-11-23T14:13:52.490Z,92741.67
2018-11-23T14:16:23.710Z,92750.10
2018-11-23T14:18:55.097Z,92745.45
2018-11-23T14:21:26.524Z,92751.84
2018-11-23T14:23:57.966Z,92757.02
2018-11-23T14:26:29.215Z,92756.58
2018-11-23T14:29:00.475Z,92755.55
2018-11-23T14:31:31.821Z,92758.61
2018-11-23T14:34:03.107Z,92756.70
2018-11-23T14:36:34.688Z,92756.92
2018-11-23T14:39:08.103Z,92746.05
2018-11-23T14:41:39.633Z,92749.76
2018-11-23T14:44:11.058Z,92752.50
2018-11-23T14:46:42.330Z,92763.34
2018-11-23T14:49:13.581Z,92766.05
2018-11-23T14:51:44.845Z,92764.94
2018-11-23T14:54:16.084Z,92774.50
2018-11-23T14:56:47.401Z,92788.65
2018-11-23T14:59:22.593Z,92778.90
2018-11-23T15:01:55.486Z,92775.94
2018-11-23T15:04:27.738Z,92780.80
2018-11-23T15:06:59.038Z,92777.40
2018-11-23T15:09:30.416Z,92783.13
2018-11-23T15:12:01.794Z,92784.34
2018-11-23T15:14:33.183Z,92788.70
2018-11-23T15:17:04.535Z,92788.42
2018-11-23T15:19:35.890Z,92800.83
2018-11-23T15:22:07.373Z,92800.98
2018-11-23T15:24:38.683Z,92805.16
2018-11-23T15:27:10.089Z,92807.22
2018-11-23T15:29:41.704Z,92806.80
2018-11-23T15:32:13.025Z,92806.45
2018-11-23T15:34:44.273Z,92815.36
2018-11-23T15:37:15.549Z,92810.09
2018-11-23T15:39:46.831Z,92807.77
2018-11-23T15:42:18.232Z,92811.66
2018-11-23T15:44:53.378Z,92819.80
2018-11-23T15:47:24.672Z,92819.83
2018-11-23T15:49:56.120Z,92823.39
2018-11-23T15:52:27.521Z,92827.95
2018-11-23T15:54:58.835Z,92830.82
2018-11-23T15:57:30.066Z,92836.31
2018-11-23T16:00:02.733Z,92838.61
2018-11-23T16:02:36.671Z,92839.61
2018-11-23T16:05:08.058Z,92835.02
2018-11-23T16:07:39.309Z,92839.89
2018-11-23T16:10:18.793Z,92832.67
2018-11-23T16:12:51.752Z,92838.55
2018-11-23T16:15:23.686Z,92847.10
2018-11-23T16:17:55.236Z,92844.34
2018-11-23T16:20:29.041Z,92846.11
2018-11-23T16:23:02.680Z,92851.89
2018-11-23T16:25:34.206Z,92852.19
2018-11-23T16:28:06.911Z,92856.27
2018-11-23T16:30:40.716Z,92855.97
2018-11-23T16:33:14.331Z,92856.16
2018-11-23T16:35:45.707Z,92858.65
2018-11-23T16:38:19.303Z,92856.50
2018-11-23T16:40:52.415Z,92858.59
2018-11-23T16:43:23.815Z,92861.95
2018-11-23T16:45:55.459Z,92856.14
2018-11-23T16:48:26.704Z,92864.89
2018-11-23T16:50:58.728Z,92859.83
2018-11-23T16:53:29.977Z,92861.95
2018-11-23T16:56:01.197Z,92859.37
2018-11-23T16:58:33.084Z,92867.83
2018-11-23T17:01:04.668Z,92868.32
2018-11-23T17:03:35.998Z,92870.73
2018-11-23T17:06:07.335Z,92868.65
2018-11-23T17:08:39.886Z,92869.03
2018-11-23T17:11:09.953Z,92874.55
2018-11-23T17:13:41.348Z,92870.83
2018-11-23T17:16:13.609Z,92869.56
2018-11-23T17:18:44.899Z,92868.75
2018-11-23T17:21:16.361Z,92867.86
2018-11-23T17:23:47.663Z,92870.47
2018-11-23T17:26:19.271Z,92870.69
2018-11-23T17:28:50.613Z,92870.33
2018-11-23T17:31:21.955Z,92878.58
2018-11-23T17:33:53.276Z,92882.31
2018-11-23T17:36:27.347Z,92882.73
2018-11-23T17:38:58.643Z,92884.55
2018-11-23T17:41:30.156Z,92887.86
2018-11-23T17:44:01.583Z,92888.95
2018-11-23T17:46:32.755Z,92894.30
2018-11-23T17:49:03.979Z,92887.81
2018-11-23T17:51:35.293Z,92894.30
2018-11-23T17:54:12.560Z,92892.52
2018-11-23T17:56:43.880Z,92891.16
2018-11-23T17:59:15.099Z,92897.35
2018-11-23T18:01:46.460Z,92897.82
2018-11-23T18:04:17.712Z,92905.66
2018-11-23T18:06:50.120Z,92906.39
2018-11-23T18:09:21.276Z,92903.91
2018-11-23T18:11:52.669Z,92908.16
2018-11-23T18:14:23.943Z,92902.01
2018-11-23T18:16:55.477Z,92906.72
2018-11-23T18:19:27.561Z,92901.67
2018-11-23T18:21:58.862Z,92906.30
2018-11-23T18:24:30.455Z,92908.16
2018-11-23T18:27:01.756Z,92908.58
2018-11-23T18:29:33.005Z,92907.84
2018-11-23T18:32:04.302Z,92912.23
2018-11-23T18:34:35.651Z,92906.09
2018-11-23T18:37:07.008Z,92909.66
2018-11-23T18:39:38.371Z,92912.03
2018-11-23T18:42:10.232Z,92911.44
2018-11-23T18:44:41.494Z,92910.40
2018-11-23T18:47:15.476Z,92909.55
2018-11-23T18:49:46.977Z,92900.90
2018-11-23T18:52:18.215Z,92906.89
2018-11-23T18:54:50.061Z,92903.83
2018-11-23T18:57:21.735Z,92912.14
2018-11-23T18:59:52.968Z,92906.48
2018-11-23T19:02:24.655Z,92909.70
2018-11-23T19:04:57.537Z,92910.73
2018-11-23T19:07:28.853Z,92912.08
2018-11-23T19:10:00.091Z,92918.92
2018-11-23T19:12:34.628Z,92919.05
2018-11-23T19:15:11.035Z,92916.85
2018-11-23T19:17:42.243Z,92912.36
2018-11-23T19:20:21.268Z,92917.27
2018-11-23T19:22:54.562Z,92919.03
2018-11-23T19:25:26.470Z,92916.85
2018-11-23T19:27:57.841Z,92920.06
2018-11-23T19:30:29.135Z,92928.52
2018-11-23T19:33:00.314Z,92927.48
2018-11-23T19:35:31.539Z,92926.98
2018-11-23T19:38:02.790Z,92928.32
2018-11-23T19:40:33.919Z,92926.95
2018-11-23T19:43:05.809Z,92928.39
2018-11-23T19:45:37.128Z,92929.34
2018-11-23T19:48:08.836Z,92930.09
2018-11-23T19:50:40.054Z,92926.16
2018-11-23T19:53:11.343Z,92925.38
2018-11-23T19:55:42.638Z,92925.89
2018-11-23T19:58:13.883Z,92918.91
2018-11-23T20:00:45.102Z,92920.55
2018-11-23T20:03:18.594Z,92915.73
2018-11-23T20:05:50.180Z,92916.89
2018-11-23T20:08:21.485Z,92917.56
2018-11-23T20:10:52.923Z,92913.03
2018-11-23T20:13:24.845Z,92915.41
2018-11-23T20:15:56.376Z,92909.13
2018-11-23T20:18:28.573Z,92909.34
2018-11-23T20:20:59.913Z,92914.80
2018-11-23T20:23:31.179Z,92916.68
2018-11-23T20:26:02.691Z,92910.26
2018-11-23T20:28:35.775Z,92908.94
2018-11-23T20:31:10.466Z,92912.53
2018-11-23T20:33:44.535Z,92914.80
2018-11-23T20:36:16.111Z,92914.39
2018-11-23T20:38:48.080Z,92914.59
2018-11-23T20:41:20.407Z,92916.75
2018-11-23T20:43:56.689Z,92918.13
2018-11-23T20:46:28.465Z,92912.88
2018-11-23T20:49:01.063Z,92914.53
2018-11-23T20:51:35.329Z,92917.11
2018-11-23T20:54:07.276Z,92910.59
2018-11-23T20:56:48.631Z,92920.39
2018-11-23T20:59:43.789Z,92916.28
2018-11-23T21:02:21.656Z,92911.25
2018-11-23T21:04:59.579Z,92913.09
2018-11-23T21:07:36.947Z,92924.67
2018-11-23T21:10:20.262Z,92926.02
2018-11-23T21:15:52.225Z,92928.08
2018-11-23T21:18:29.484Z,92926.84
2018-11-23T21:21:06.367Z,92927.03
2018-11-23T21:23:43.837Z,92923.45
2018-11-23T21:26:20.917Z,92922.72
2018-11-23T21:28:57.506Z,92922.20
2018-11-23T21:31:37.131Z,92921.70
2018-11-23T21:56:00.919Z,92909.60
2018-11-23T21:58:37.455Z,92907.33
2018-11-23T22:01:13.988Z,92906.42
2018-11-23T22:03:50.903Z,92910.84
2018-11-23T22:06:28.386Z,92906.75
2018-11-23T22:09:07.156Z,92904.59
2018-11-23T22:11:43.625Z,92909.42
2018-11-23T22:14:19.978Z,92903.66
2018-11-23T22:16:56.300Z,92905.61
2018-11-23T22:19:33.520Z,92904.89
2018-11-23T22:22:09.646Z,92905.70
2018-11-23T22:24:46.134Z,92901.34
2018-11-23T22:27:22.462Z,92896.22
2018-11-23T22:29:59.169Z,92889.89
2018-11-23T22:32:35.385Z,92889.06
2018-11-23T22:35:12.514Z,92885.50
2018-11-23T22:37:48.751Z,92885.28
2018-11-23T22:40:25.307Z,92884.13
2018-11-23T22:43:01.538Z,92883.23
2018-11-23T22:45:37.921Z,92886.04
2018-11-23T22:48:14.203Z,92882.98
2018-11-23T22:50:50.280Z,92882.59
2018-11-23T22:53:27.392Z,92882.75
2018-11-23T22:56:03.517Z,92886.92
2018-11-23T22:58:39.677Z,92887.11
2018-11-23T23:01:16.182Z,92881.95
2018-11-23T23:03:52.447Z,92886.86
2018-11-23T23:06:28.930Z,92890.33
2018-11-23T23:09:08.220Z,92880.38
2018-11-23T23:11:44.661Z,92886.61
2018-11-23T23:14:20.992Z,92880.74
2018-11-23T23:16:57.260Z,92887.80
2018-11-23T23:19:33.804Z,92876.31
2018-11-23T23:22:09.966Z,92882.40
2018-11-23T23:24:46.448Z,92874.48
2018-11-23T23:27:22.543Z,92881.72
2018-11-23T23:29:58.917Z,92878.73
2018-11-23T23:32:35.363Z,92881.75
2018-11-23T23:35:12.984Z,92880.02
2018-11-23T23:37:49.314Z,92876.39
2018-11-23T23:40:25.571Z,92880.53
2018-11-23T23:43:01.916Z,92884.70
2018-11-23T23:45:37.976Z,92890.49
2018-11-23T23:48:14.426Z,92894.81
2018-11-23T23:50:50.756Z,92893.50
2018-11-23T23:53:27.168Z,92891.45
2018-11-23T23:56:03.552Z,92898.44
2018-11-23T23:58:39.927Z,92897.11
